sensor_id;sensor_type;location;lat;lon;timestamp;P1;durP1;ratioP1;P2;durP2;ratioP2
75379;SDS011;65641;44.714;37.756;2024-01-11T00:00:32;11.43;;;6.53;;
75379;SDS011;65641;44.714;37.756;2024-01-11T00:01:36;10.07;;;6.00;;
75379;SDS011;65641;44.714;37.756;2024-01-11T00:02:40;10.57;;;5.47;;
75379;SDS011;65641;44.714;37.756;2024-01-11T00:03:44;13.38;;;6.32;;
75379;SDS011;65641;44.714;37.756;2024-01-11T00:04:47;10.52;;;5.45;;
75379;SDS011;65641;44.714;37.756;2024-01-11T00:05:51;11.57;;;7.47;;
75379;SDS011;65641;44.714;37.756;2024-01-11T00:06:55;11.10;;;7.18;;
75379;SDS011;65641;44.714;37.756;2024-01-11T00:07:59;10.45;;;6.97;;
75379;SDS011;65641;44.714;37.756;2024-01-11T00:09:03;10.77;;;7.03;;
75379;SDS011;65641;44.714;37.756;2024-01-11T00:10:07;11.13;;;6.22;;
75379;SDS011;65641;44.714;37.756;2024-01-11T00:11:11;12.50;;;7.65;;
75379;SDS011;65641;44.714;37.756;2024-01-11T00:12:19;11.23;;;7.07;;
75379;SDS011;65641;44.714;37.756;2024-01-11T00:13:23;11.43;;;7.18;;
75379;SDS011;65641;44.714;37.756;2024-01-11T00:14:27;11.52;;;5.43;;
75379;SDS011;65641;44.714;37.756;2024-01-11T00:15:31;12.45;;;5.88;;
75379;SDS011;65641;44.714;37.756;2024-01-11T00:16:35;10.98;;;7.18;;
75379;SDS011;65641;44.714;37.756;2024-01-11T00:17:39;10.77;;;7.28;;
75379;SDS011;65641;44.714;37.756;2024-01-11T00:18:43;12.57;;;7.45;;
75379;SDS011;65641;44.714;37.756;2024-01-11T00:19:48;12.32;;;5.93;;
75379;SDS011;65641;44.714;37.756;2024-01-11T00:20:56;12.05;;;5.68;;
75379;SDS011;65641;44.714;37.756;2024-01-11T00:22:01;12.93;;;7.57;;
75379;SDS011;65641;44.714;37.756;2024-01-11T00:23:04;12.48;;;7.15;;
75379;SDS011;65641;44.714;37.756;2024-01-11T00:24:08;12.25;;;7.72;;
75379;SDS011;65641;44.714;37.756;2024-01-11T00:25:12;10.55;;;5.13;;
75379;SDS011;65641;44.714;37.756;2024-01-11T00:26:16;12.13;;;7.72;;
75379;SDS011;65641;44.714;37.756;2024-01-11T00:27:20;11.35;;;5.22;;
75379;SDS011;65641;44.714;37.756;2024-01-11T00:28:24;12.35;;;5.63;;
75379;SDS011;65641;44.714;37.756;2024-01-11T00:29:27;12.93;;;7.68;;
75379;SDS011;65641;44.714;37.756;2024-01-11T00:30:31;9.60;;;5.13;;
75379;SDS011;65641;44.714;37.756;2024-01-11T00:31:35;12.77;;;5.75;;
75379;SDS011;65641;44.714;37.756;2024-01-11T00:32:40;11.63;;;8.35;;
75379;SDS011;65641;44.714;37.756;2024-01-11T00:33:43;13.50;;;8.27;;
75379;SDS011;65641;44.714;37.756;2024-01-11T00:34:47;11.35;;;7.75;;
75379;SDS011;65641;44.714;37.756;2024-01-11T00:35:51;11.88;;;5.20;;
75379;SDS011;65641;44.714;37.756;2024-01-11T00:36:54;11.25;;;5.43;;
75379;SDS011;65641;44.714;37.756;2024-01-11T00:37:57;11.55;;;6.60;;
75379;SDS011;65641;44.714;37.756;2024-01-11T00:39:01;13.43;;;7.45;;
75379;SDS011;65641;44.714;37.756;2024-01-11T00:40:05;11.95;;;7.30;;
75379;SDS011;65641;44.714;37.756;2024-01-11T00:41:09;11.65;;;5.82;;
75379;SDS011;65641;44.714;37.756;2024-01-11T00:42:12;13.57;;;7.53;;
75379;SDS011;65641;44.714;37.756;2024-01-11T00:43:15;12.35;;;7.53;;
75379;SDS011;65641;44.714;37.756;2024-01-11T00:44:19;11.00;;;6.57;;
75379;SDS011;65641;44.714;37.756;2024-01-11T00:45:23;10.80;;;7.13;;
75379;SDS011;65641;44.714;37.756;2024-01-11T00:46:26;13.57;;;8.50;;
75379;SDS011;65641;44.714;37.756;2024-01-11T00:47:29;12.60;;;7.63;;
75379;SDS011;65641;44.714;37.756;2024-01-11T00:48:33;12.63;;;5.03;;
75379;SDS011;65641;44.714;37.756;2024-01-11T00:49:36;10.77;;;5.20;;
75379;SDS011;65641;44.714;37.756;2024-01-11T00:50:40;11.52;;;6.95;;
75379;SDS011;65641;44.714;37.756;2024-01-11T00:51:44;11.00;;;5.57;;
75379;SDS011;65641;44.714;37.756;2024-01-11T00:52:48;11.43;;;6.13;;
75379;SDS011;65641;44.714;37.756;2024-01-11T00:53:51;10.88;;;5.13;;
75379;SDS011;65641;44.714;37.756;2024-01-11T00:54:55;12.48;;;7.40;;
75379;SDS011;65641;44.714;37.756;2024-01-11T00:55:58;12.95;;;5.93;;
75379;SDS011;65641;44.714;37.756;2024-01-11T00:57:05;10.77;;;6.95;;
75379;SDS011;65641;44.714;37.756;2024-01-11T00:58:08;11.70;;;5.28;;
75379;SDS011;65641;44.714;37.756;2024-01-11T00:59:11;12.43;;;6.22;;
75379;SDS011;65641;44.714;37.756;2024-01-11T01:00:15;12.25;;;6.90;;
75379;SDS011;65641;44.714;37.756;2024-01-11T01:01:18;10.32;;;5.03;;
75379;SDS011;65641;44.714;37.756;2024-01-11T01:02:22;12.35;;;5.97;;
75379;SDS011;65641;44.714;37.756;2024-01-11T01:03:26;10.32;;;4.90;;
75379;SDS011;65641;44.714;37.756;2024-01-11T01:04:29;11.02;;;5.32;;
75379;SDS011;65641;44.714;37.756;2024-01-11T01:05:33;11.27;;;7.32;;
75379;SDS011;65641;44.714;37.756;2024-01-11T01:06:36;12.23;;;6.45;;
75379;SDS011;65641;44.714;37.756;2024-01-11T01:07:40;10.25;;;6.57;;
75379;SDS011;65641;44.714;37.756;2024-01-11T01:08:43;9.60;;;5.22;;
75379;SDS011;65641;44.714;37.756;2024-01-11T01:09:47;11.95;;;8.13;;
75379;SDS011;65641;44.714;37.756;2024-01-11T01:10:50;11.10;;;5.38;;
75379;SDS011;65641;44.714;37.756;2024-01-11T01:11:54;11.85;;;6.22;;
75379;SDS011;65641;44.714;37.756;2024-01-11T01:12:57;11.55;;;4.93;;
75379;SDS011;65641;44.714;37.756;2024-01-11T01:14:01;10.98;;;6.13;;
75379;SDS011;65641;44.714;37.756;2024-01-11T01:15:04;9.15;;;4.75;;
75379;SDS011;65641;44.714;37.756;2024-01-11T01:16:09;11.95;;;6.65;;
75379;SDS011;65641;44.714;37.756;2024-01-11T01:17:12;10.48;;;5.68;;
75379;SDS011;65641;44.714;37.756;2024-01-11T01:18:18;12.15;;;7.35;;
75379;SDS011;65641;44.714;37.756;2024-01-11T01:19:22;10.82;;;4.90;;
75379;SDS011;65641;44.714;37.756;2024-01-11T01:20:25;10.70;;;5.78;;
75379;SDS011;65641;44.714;37.756;2024-01-11T01:21:29;12.55;;;5.70;;
75379;SDS011;65641;44.714;37.756;2024-01-11T01:22:32;12.25;;;7.60;;
75379;SDS011;65641;44.714;37.756;2024-01-11T01:23:36;9.52;;;5.03;;
75379;SDS011;65641;44.714;37.756;2024-01-11T01:24:40;10.80;;;5.18;;
75379;SDS011;65641;44.714;37.756;2024-01-11T01:25:43;11.73;;;6.25;;
75379;SDS011;65641;44.714;37.756;2024-01-11T01:26:47;9.32;;;5.30;;
75379;SDS011;65641;44.714;37.756;2024-01-11T01:27:51;11.25;;;7.70;;
75379;SDS011;65641;44.714;37.756;2024-01-11T01:28:54;11.60;;;6.75;;
75379;SDS011;65641;44.714;37.756;2024-01-11T01:29:58;10.57;;;6.50;;
75379;SDS011;65641;44.714;37.756;2024-01-11T01:31:01;9.30;;;5.38;;
75379;SDS011;65641;44.714;37.756;2024-01-11T01:32:05;9.40;;;4.50;;
75379;SDS011;65641;44.714;37.756;2024-01-11T01:33:08;10.52;;;7.30;;
75379;SDS011;65641;44.714;37.756;2024-01-11T01:34:12;11.35;;;6.57;;
75379;SDS011;65641;44.714;37.756;2024-01-11T01:35:17;10.40;;;6.07;;
75379;SDS011;65641;44.714;37.756;2024-01-11T01:36:22;10.35;;;5.95;;
75379;SDS011;65641;44.714;37.756;2024-01-11T01:37:26;10.05;;;5.78;;
75379;SDS011;65641;44.714;37.756;2024-01-11T01:38:29;11.75;;;5.60;;
75379;SDS011;65641;44.714;37.756;2024-01-11T01:39:36;11.55;;;5.22;;
75379;SDS011;65641;44.714;37.756;2024-01-11T01:40:41;11.10;;;7.30;;
75379;SDS011;65641;44.714;37.756;2024-01-11T01:41:44;11.70;;;6.68;;
75379;SDS011;65641;44.714;37.756;2024-01-11T01:42:48;9.30;;;5.88;;
75379;SDS011;65641;44.714;37.756;2024-01-11T01:43:51;11.00;;;7.30;;
75379;SDS011;65641;44.714;37.756;2024-01-11T01:44:59;10.05;;;6.75;;
75379;SDS011;65641;44.714;37.756;2024-01-11T01:46:04;11.00;;;7.07;;
75379;SDS011;65641;44.714;37.756;2024-01-11T01:47:09;11.07;;;6.05;;
75379;SDS011;65641;44.714;37.756;2024-01-11T01:48:14;11.30;;;4.70;;
75379;SDS011;65641;44.714;37.756;2024-01-11T01:49:18;9.57;;;4.85;;
75379;SDS011;65641;44.714;37.756;2024-01-11T01:50:25;11.25;;;6.43;;
75379;SDS011;65641;44.714;37.756;2024-01-11T01:51:29;9.15;;;4.60;;
75379;SDS011;65641;44.714;37.756;2024-01-11T01:52:34;10.15;;;6.22;;
75379;SDS011;65641;44.714;37.756;2024-01-11T01:53:39;10.85;;;6.20;;
75379;SDS011;65641;44.714;37.756;2024-01-11T01:54:43;10.63;;;6.95;;
75379;SDS011;65641;44.714;37.756;2024-01-11T01:55:47;8.98;;;4.65;;
75379;SDS011;65641;44.714;37.756;2024-01-11T01:56:51;10.32;;;6.40;;
75379;SDS011;65641;44.714;37.756;2024-01-11T01:57:56;7.78;;;5.15;;
75379;SDS011;65641;44.714;37.756;2024-01-11T01:59:01;9.45;;;4.85;;
75379;SDS011;65641;44.714;37.756;2024-01-11T02:00:08;8.70;;;5.18;;
75379;SDS011;65641;44.714;37.756;2024-01-11T02:01:13;10.38;;;5.13;;
75379;SDS011;65641;44.714;37.756;2024-01-11T02:02:21;10.90;;;8.05;;
75379;SDS011;65641;44.714;37.756;2024-01-11T02:03:25;8.45;;;4.35;;
75379;SDS011;65641;44.714;37.756;2024-01-11T02:04:31;10.65;;;4.88;;
75379;SDS011;65641;44.714;37.756;2024-01-11T02:05:35;10.30;;;5.50;;
75379;SDS011;65641;44.714;37.756;2024-01-11T02:06:40;9.70;;;6.45;;
75379;SDS011;65641;44.714;37.756;2024-01-11T02:07:44;9.68;;;4.45;;
75379;SDS011;65641;44.714;37.756;2024-01-11T02:08:47;8.65;;;5.32;;
75379;SDS011;65641;44.714;37.756;2024-01-11T02:09:55;9.20;;;4.25;;
75379;SDS011;65641;44.714;37.756;2024-01-11T02:10:59;10.73;;;5.22;;
75379;SDS011;65641;44.714;37.756;2024-01-11T02:12:03;10.05;;;5.88;;
75379;SDS011;65641;44.714;37.756;2024-01-11T02:13:08;9.50;;;5.63;;
75379;SDS011;65641;44.714;37.756;2024-01-11T02:14:12;9.23;;;6.15;;
75379;SDS011;65641;44.714;37.756;2024-01-11T02:15:16;9.88;;;4.95;;
75379;SDS011;65641;44.714;37.756;2024-01-11T02:16:22;9.73;;;5.90;;
75379;SDS011;65641;44.714;37.756;2024-01-11T02:17:26;9.75;;;6.43;;
75379;SDS011;65641;44.714;37.756;2024-01-11T02:18:29;8.88;;;6.13;;
75379;SDS011;65641;44.714;37.756;2024-01-11T02:19:33;10.93;;;6.25;;
75379;SDS011;65641;44.714;37.756;2024-01-11T02:20:36;9.68;;;6.00;;
75379;SDS011;65641;44.714;37.756;2024-01-11T02:21:43;10.90;;;6.60;;
75379;SDS011;65641;44.714;37.756;2024-01-11T02:22:50;10.25;;;5.07;;
75379;SDS011;65641;44.714;37.756;2024-01-11T02:24:05;9.15;;;5.70;;
75379;SDS011;65641;44.714;37.756;2024-01-11T02:25:10;9.77;;;6.28;;
75379;SDS011;65641;44.714;37.756;2024-01-11T02:26:14;9.55;;;6.20;;
75379;SDS011;65641;44.714;37.756;2024-01-11T02:27:17;10.00;;;5.18;;
75379;SDS011;65641;44.714;37.756;2024-01-11T02:28:21;9.25;;;4.90;;
75379;SDS011;65641;44.714;37.756;2024-01-11T02:29:25;8.13;;;4.10;;
75379;SDS011;65641;44.714;37.756;2024-01-11T02:30:28;9.27;;;4.75;;
75379;SDS011;65641;44.714;37.756;2024-01-11T02:31:32;10.90;;;7.05;;
75379;SDS011;65641;44.714;37.756;2024-01-11T02:32:37;10.50;;;6.00;;
75379;SDS011;65641;44.714;37.756;2024-01-11T02:33:41;9.75;;;4.93;;
75379;SDS011;65641;44.714;37.756;2024-01-11T02:34:45;9.73;;;5.18;;
75379;SDS011;65641;44.714;37.756;2024-01-11T02:35:49;9.02;;;4.57;;
75379;SDS011;65641;44.714;37.756;2024-01-11T02:36:54;12.10;;;6.40;;
75379;SDS011;65641;44.714;37.756;2024-01-11T02:37:58;8.52;;;4.75;;
75379;SDS011;65641;44.714;37.756;2024-01-11T02:39:03;8.02;;;4.20;;
75379;SDS011;65641;44.714;37.756;2024-01-11T02:40:08;9.18;;;4.45;;
75379;SDS011;65641;44.714;37.756;2024-01-11T02:41:14;9.63;;;4.93;;
75379;SDS011;65641;44.714;37.756;2024-01-11T02:42:19;11.55;;;7.15;;
75379;SDS011;65641;44.714;37.756;2024-01-11T02:43:23;10.50;;;6.45;;
75379;SDS011;65641;44.714;37.756;2024-01-11T02:44:27;10.70;;;5.63;;
75379;SDS011;65641;44.714;37.756;2024-01-11T02:45:31;9.73;;;5.97;;
75379;SDS011;65641;44.714;37.756;2024-01-11T02:46:35;11.52;;;7.13;;
75379;SDS011;65641;44.714;37.756;2024-01-11T02:47:39;11.27;;;6.80;;
75379;SDS011;65641;44.714;37.756;2024-01-11T02:48:43;10.00;;;5.50;;
75379;SDS011;65641;44.714;37.756;2024-01-11T02:49:48;11.65;;;5.63;;
75379;SDS011;65641;44.714;37.756;2024-01-11T02:50:51;12.50;;;6.60;;
75379;SDS011;65641;44.714;37.756;2024-01-11T02:51:56;10.63;;;6.68;;
75379;SDS011;65641;44.714;37.756;2024-01-11T02:52:59;11.50;;;7.15;;
75379;SDS011;65641;44.714;37.756;2024-01-11T02:54:03;11.00;;;6.43;;
75379;SDS011;65641;44.714;37.756;2024-01-11T02:55:07;11.40;;;5.07;;
75379;SDS011;65641;44.714;37.756;2024-01-11T02:56:12;9.60;;;5.13;;
75379;SDS011;65641;44.714;37.756;2024-01-11T02:57:16;11.48;;;7.40;;
75379;SDS011;65641;44.714;37.756;2024-01-11T02:58:20;11.70;;;6.60;;
75379;SDS011;65641;44.714;37.756;2024-01-11T02:59:23;10.70;;;6.40;;
75379;SDS011;65641;44.714;37.756;2024-01-11T03:00:27;9.10;;;4.60;;
75379;SDS011;65641;44.714;37.756;2024-01-11T03:01:31;11.40;;;6.90;;
75379;SDS011;65641;44.714;37.756;2024-01-11T03:02:36;10.40;;;4.72;;
75379;SDS011;65641;44.714;37.756;2024-01-11T03:03:41;9.10;;;5.50;;
75379;SDS011;65641;44.714;37.756;2024-01-11T03:04:45;12.75;;;7.57;;
75379;SDS011;65641;44.714;37.756;2024-01-11T03:05:49;11.32;;;5.13;;
75379;SDS011;65641;44.714;37.756;2024-01-11T03:06:53;9.88;;;6.75;;
75379;SDS011;65641;44.714;37.756;2024-01-11T03:07:57;11.40;;;6.03;;
75379;SDS011;65641;44.714;37.756;2024-01-11T03:09:01;10.73;;;7.22;;
75379;SDS011;65641;44.714;37.756;2024-01-11T03:10:04;11.88;;;7.05;;
75379;SDS011;65641;44.714;37.756;2024-01-11T03:11:08;10.57;;;4.85;;
75379;SDS011;65641;44.714;37.756;2024-01-11T03:12:12;9.85;;;5.13;;
75379;SDS011;65641;44.714;37.756;2024-01-11T03:13:16;10.55;;;6.53;;
75379;SDS011;65641;44.714;37.756;2024-01-11T03:14:19;9.20;;;6.72;;
75379;SDS011;65641;44.714;37.756;2024-01-11T03:15:23;9.68;;;7.03;;
75379;SDS011;65641;44.714;37.756;2024-01-11T03:16:27;11.57;;;7.32;;
75379;SDS011;65641;44.714;37.756;2024-01-11T03:17:31;11.38;;;6.95;;
75379;SDS011;65641;44.714;37.756;2024-01-11T03:18:35;8.85;;;4.40;;
75379;SDS011;65641;44.714;37.756;2024-01-11T03:19:40;9.90;;;5.50;;
75379;SDS011;65641;44.714;37.756;2024-01-11T03:20:46;12.05;;;6.78;;
75379;SDS011;65641;44.714;37.756;2024-01-11T03:21:50;11.00;;;7.72;;
75379;SDS011;65641;44.714;37.756;2024-01-11T03:22:54;10.50;;;6.55;;
75379;SDS011;65641;44.714;37.756;2024-01-11T03:23:58;10.27;;;7.15;;
75379;SDS011;65641;44.714;37.756;2024-01-11T03:25:02;11.57;;;6.88;;
75379;SDS011;65641;44.714;37.756;2024-01-11T03:26:14;10.07;;;6.30;;
75379;SDS011;65641;44.714;37.756;2024-01-11T03:27:19;12.98;;;7.15;;
75379;SDS011;65641;44.714;37.756;2024-01-11T03:28:23;11.55;;;7.07;;
75379;SDS011;65641;44.714;37.756;2024-01-11T03:29:26;12.70;;;7.70;;
75379;SDS011;65641;44.714;37.756;2024-01-11T03:30:31;11.20;;;6.32;;
75379;SDS011;65641;44.714;37.756;2024-01-11T03:31:34;10.90;;;6.43;;
75379;SDS011;65641;44.714;37.756;2024-01-11T03:32:38;12.23;;;6.95;;
75379;SDS011;65641;44.714;37.756;2024-01-11T03:33:42;12.38;;;7.00;;
75379;SDS011;65641;44.714;37.756;2024-01-11T03:34:46;11.35;;;5.20;;
75379;SDS011;65641;44.714;37.756;2024-01-11T03:35:50;11.73;;;7.35;;
75379;SDS011;65641;44.714;37.756;2024-01-11T03:36:54;13.32;;;7.32;;
75379;SDS011;65641;44.714;37.756;2024-01-11T03:37:57;12.38;;;7.50;;
75379;SDS011;65641;44.714;37.756;2024-01-11T03:39:01;10.65;;;6.82;;
75379;SDS011;65641;44.714;37.756;2024-01-11T03:40:05;9.55;;;6.88;;
75379;SDS011;65641;44.714;37.756;2024-01-11T03:41:10;11.25;;;6.75;;
75379;SDS011;65641;44.714;37.756;2024-01-11T03:42:14;12.02;;;7.40;;
75379;SDS011;65641;44.714;37.756;2024-01-11T03:43:18;12.25;;;6.68;;
75379;SDS011;65641;44.714;37.756;2024-01-11T03:44:22;13.45;;;9.07;;
75379;SDS011;65641;44.714;37.756;2024-01-11T03:45:26;11.25;;;6.95;;
75379;SDS011;65641;44.714;37.756;2024-01-11T03:46:29;13.32;;;9.65;;
75379;SDS011;65641;44.714;37.756;2024-01-11T03:47:33;10.55;;;5.70;;
75379;SDS011;65641;44.714;37.756;2024-01-11T03:48:37;13.88;;;6.47;;
75379;SDS011;65641;44.714;37.756;2024-01-11T03:49:41;14.75;;;8.98;;
75379;SDS011;65641;44.714;37.756;2024-01-11T03:50:45;11.70;;;5.85;;
75379;SDS011;65641;44.714;37.756;2024-01-11T03:51:49;11.20;;;7.13;;
75379;SDS011;65641;44.714;37.756;2024-01-11T03:52:52;13.75;;;7.72;;
75379;SDS011;65641;44.714;37.756;2024-01-11T03:53:56;13.13;;;6.72;;
75379;SDS011;65641;44.714;37.756;2024-01-11T03:55:00;11.80;;;5.80;;
75379;SDS011;65641;44.714;37.756;2024-01-11T03:56:06;11.50;;;6.10;;
75379;SDS011;65641;44.714;37.756;2024-01-11T03:57:09;12.45;;;7.93;;
75379;SDS011;65641;44.714;37.756;2024-01-11T03:58:14;14.15;;;8.25;;
75379;SDS011;65641;44.714;37.756;2024-01-11T03:59:17;12.85;;;6.28;;
75379;SDS011;65641;44.714;37.756;2024-01-11T04:00:21;12.15;;;5.57;;
75379;SDS011;65641;44.714;37.756;2024-01-11T04:01:29;11.80;;;6.35;;
75379;SDS011;65641;44.714;37.756;2024-01-11T04:02:33;15.68;;;9.52;;
75379;SDS011;65641;44.714;37.756;2024-01-11T04:03:37;13.02;;;7.55;;
75379;SDS011;65641;44.714;37.756;2024-01-11T04:04:41;13.63;;;7.65;;
75379;SDS011;65641;44.714;37.756;2024-01-11T04:05:45;10.85;;;6.03;;
75379;SDS011;65641;44.714;37.756;2024-01-11T04:06:49;13.90;;;8.73;;
75379;SDS011;65641;44.714;37.756;2024-01-11T04:07:54;12.30;;;7.88;;
75379;SDS011;65641;44.714;37.756;2024-01-11T04:08:58;12.52;;;7.55;;
75379;SDS011;65641;44.714;37.756;2024-01-11T04:10:02;11.25;;;7.32;;
75379;SDS011;65641;44.714;37.756;2024-01-11T04:11:06;13.30;;;7.57;;
75379;SDS011;65641;44.714;37.756;2024-01-11T04:12:10;11.30;;;5.95;;
75379;SDS011;65641;44.714;37.756;2024-01-11T04:13:14;12.82;;;8.60;;
75379;SDS011;65641;44.714;37.756;2024-01-11T04:14:18;12.13;;;7.70;;
75379;SDS011;65641;44.714;37.756;2024-01-11T04:15:22;12.00;;;5.90;;
75379;SDS011;65641;44.714;37.756;2024-01-11T04:16:25;12.73;;;7.38;;
75379;SDS011;65641;44.714;37.756;2024-01-11T04:17:29;13.20;;;7.63;;
75379;SDS011;65641;44.714;37.756;2024-01-11T04:18:33;12.55;;;8.07;;
75379;SDS011;65641;44.714;37.756;2024-01-11T04:19:39;11.73;;;5.40;;
75379;SDS011;65641;44.714;37.756;2024-01-11T04:20:42;13.27;;;8.10;;
75379;SDS011;65641;44.714;37.756;2024-01-11T04:21:46;12.15;;;6.32;;
75379;SDS011;65641;44.714;37.756;2024-01-11T04:22:50;13.30;;;7.60;;
75379;SDS011;65641;44.714;37.756;2024-01-11T04:23:54;13.63;;;7.72;;
75379;SDS011;65641;44.714;37.756;2024-01-11T04:24:59;11.73;;;6.18;;
75379;SDS011;65641;44.714;37.756;2024-01-11T04:26:05;12.55;;;6.15;;
75379;SDS011;65641;44.714;37.756;2024-01-11T04:27:08;12.63;;;6.70;;
75379;SDS011;65641;44.714;37.756;2024-01-11T04:28:12;14.27;;;9.00;;
75379;SDS011;65641;44.714;37.756;2024-01-11T04:29:16;11.88;;;6.38;;
75379;SDS011;65641;44.714;37.756;2024-01-11T04:30:21;12.88;;;6.57;;
75379;SDS011;65641;44.714;37.756;2024-01-11T04:31:25;13.65;;;8.35;;
75379;SDS011;65641;44.714;37.756;2024-01-11T04:32:30;12.95;;;6.60;;
75379;SDS011;65641;44.714;37.756;2024-01-11T04:33:34;15.18;;;8.60;;
75379;SDS011;65641;44.714;37.756;2024-01-11T04:34:38;14.55;;;7.53;;
75379;SDS011;65641;44.714;37.756;2024-01-11T04:35:42;11.10;;;5.82;;
75379;SDS011;65641;44.714;37.756;2024-01-11T04:36:46;15.93;;;8.35;;
75379;SDS011;65641;44.714;37.756;2024-01-11T04:37:49;13.63;;;7.72;;
75379;SDS011;65641;44.714;37.756;2024-01-11T04:38:53;13.07;;;6.10;;
75379;SDS011;65641;44.714;37.756;2024-01-11T04:39:57;14.90;;;6.28;;
75379;SDS011;65641;44.714;37.756;2024-01-11T04:41:14;13.73;;;8.70;;
75379;SDS011;65641;44.714;37.756;2024-01-11T04:42:18;14.15;;;8.35;;
75379;SDS011;65641;44.714;37.756;2024-01-11T04:43:22;12.48;;;6.55;;
75379;SDS011;65641;44.714;37.756;2024-01-11T04:44:26;16.33;;;9.15;;
75379;SDS011;65641;44.714;37.756;2024-01-11T04:45:30;13.45;;;8.27;;
75379;SDS011;65641;44.714;37.756;2024-01-11T04:46:34;12.77;;;6.70;;
75379;SDS011;65641;44.714;37.756;2024-01-11T04:47:38;12.70;;;6.72;;
75379;SDS011;65641;44.714;37.756;2024-01-11T04:48:44;14.88;;;9.63;;
75379;SDS011;65641;44.714;37.756;2024-01-11T04:49:49;14.45;;;8.27;;
75379;SDS011;65641;44.714;37.756;2024-01-11T04:50:52;14.80;;;8.70;;
75379;SDS011;65641;44.714;37.756;2024-01-11T04:51:56;14.50;;;9.23;;
75379;SDS011;65641;44.714;37.756;2024-01-11T04:53:01;14.55;;;9.20;;
75379;SDS011;65641;44.714;37.756;2024-01-11T04:54:05;14.70;;;8.32;;
75379;SDS011;65641;44.714;37.756;2024-01-11T04:55:08;13.98;;;8.57;;
75379;SDS011;65641;44.714;37.756;2024-01-11T04:56:15;15.13;;;9.23;;
75379;SDS011;65641;44.714;37.756;2024-01-11T04:57:19;11.45;;;7.57;;
75379;SDS011;65641;44.714;37.756;2024-01-11T04:58:23;14.88;;;8.18;;
75379;SDS011;65641;44.714;37.756;2024-01-11T04:59:27;16.48;;;9.13;;
75379;SDS011;65641;44.714;37.756;2024-01-11T05:00:31;15.52;;;8.75;;
75379;SDS011;65641;44.714;37.756;2024-01-11T05:01:35;13.07;;;6.65;;
75379;SDS011;65641;44.714;37.756;2024-01-11T05:02:39;16.08;;;7.22;;
75379;SDS011;65641;44.714;37.756;2024-01-11T05:03:43;14.27;;;8.35;;
75379;SDS011;65641;44.714;37.756;2024-01-11T05:04:49;14.57;;;8.82;;
75379;SDS011;65641;44.714;37.756;2024-01-11T05:05:53;14.95;;;8.93;;
75379;SDS011;65641;44.714;37.756;2024-01-11T05:06:57;14.80;;;7.47;;
75379;SDS011;65641;44.714;37.756;2024-01-11T05:08:01;16.38;;;8.90;;
75379;SDS011;65641;44.714;37.756;2024-01-11T05:09:05;15.50;;;9.00;;
75379;SDS011;65641;44.714;37.756;2024-01-11T05:10:08;13.30;;;7.10;;
75379;SDS011;65641;44.714;37.756;2024-01-11T05:11:22;15.50;;;8.82;;
75379;SDS011;65641;44.714;37.756;2024-01-11T05:12:30;14.25;;;9.10;;
75379;SDS011;65641;44.714;37.756;2024-01-11T05:13:33;16.55;;;8.52;;
75379;SDS011;65641;44.714;37.756;2024-01-11T05:14:37;16.00;;;9.43;;
75379;SDS011;65641;44.714;37.756;2024-01-11T05:15:41;15.32;;;7.93;;
75379;SDS011;65641;44.714;37.756;2024-01-11T05:16:45;13.80;;;6.82;;
75379;SDS011;65641;44.714;37.756;2024-01-11T05:17:49;15.90;;;9.05;;
75379;SDS011;65641;44.714;37.756;2024-01-11T05:18:54;14.07;;;6.50;;
75379;SDS011;65641;44.714;37.756;2024-01-11T05:19:59;15.48;;;9.57;;
75379;SDS011;65641;44.714;37.756;2024-01-11T05:21:03;16.65;;;7.55;;
75379;SDS011;65641;44.714;37.756;2024-01-11T05:22:07;14.75;;;7.70;;
75379;SDS011;65641;44.714;37.756;2024-01-11T05:23:11;15.65;;;8.52;;
75379;SDS011;65641;44.714;37.756;2024-01-11T05:24:15;13.95;;;8.82;;
75379;SDS011;65641;44.714;37.756;2024-01-11T05:25:19;15.88;;;9.30;;
75379;SDS011;65641;44.714;37.756;2024-01-11T05:26:23;13.98;;;8.20;;
75379;SDS011;65641;44.714;37.756;2024-01-11T05:27:27;13.50;;;8.23;;
75379;SDS011;65641;44.714;37.756;2024-01-11T05:28:31;14.38;;;9.60;;
75379;SDS011;65641;44.714;37.756;2024-01-11T05:29:34;15.35;;;7.40;;
75379;SDS011;65641;44.714;37.756;2024-01-11T05:30:38;13.88;;;7.50;;
75379;SDS011;65641;44.714;37.756;2024-01-11T05:31:42;15.20;;;8.88;;
75379;SDS011;65641;44.714;37.756;2024-01-11T05:32:46;17.13;;;8.77;;
75379;SDS011;65641;44.714;37.756;2024-01-11T05:33:50;12.60;;;6.28;;
75379;SDS011;65641;44.714;37.756;2024-01-11T05:34:55;14.52;;;9.20;;
75379;SDS011;65641;44.714;37.756;2024-01-11T05:35:59;15.68;;;9.10;;
75379;SDS011;65641;44.714;37.756;2024-01-11T05:37:03;14.70;;;7.10;;
75379;SDS011;65641;44.714;37.756;2024-01-11T05:38:07;16.50;;;8.80;;
75379;SDS011;65641;44.714;37.756;2024-01-11T05:39:11;15.77;;;9.88;;
75379;SDS011;65641;44.714;37.756;2024-01-11T05:40:15;16.63;;;8.45;;
75379;SDS011;65641;44.714;37.756;2024-01-11T05:41:20;15.05;;;8.60;;
75379;SDS011;65641;44.714;37.756;2024-01-11T05:42:23;16.60;;;9.38;;
75379;SDS011;65641;44.714;37.756;2024-01-11T05:43:27;15.85;;;8.88;;
75379;SDS011;65641;44.714;37.756;2024-01-11T05:44:31;15.75;;;7.13;;
75379;SDS011;65641;44.714;37.756;2024-01-11T05:45:35;13.95;;;7.68;;
75379;SDS011;65641;44.714;37.756;2024-01-11T05:46:49;15.18;;;7.50;;
75379;SDS011;65641;44.714;37.756;2024-01-11T05:47:53;14.60;;;8.75;;
75379;SDS011;65641;44.714;37.756;2024-01-11T05:48:57;14.85;;;8.43;;
75379;SDS011;65641;44.714;37.756;2024-01-11T05:50:01;14.48;;;8.57;;
75379;SDS011;65641;44.714;37.756;2024-01-11T05:51:05;14.60;;;6.88;;
75379;SDS011;65641;44.714;37.756;2024-01-11T05:52:09;15.38;;;7.25;;
75379;SDS011;65641;44.714;37.756;2024-01-11T05:53:13;13.57;;;7.22;;
75379;SDS011;65641;44.714;37.756;2024-01-11T05:54:17;14.65;;;7.15;;
75379;SDS011;65641;44.714;37.756;2024-01-11T05:55:21;14.07;;;9.02;;
75379;SDS011;65641;44.714;37.756;2024-01-11T05:56:25;14.48;;;6.88;;
75379;SDS011;65641;44.714;37.756;2024-01-11T05:57:29;15.13;;;7.70;;
75379;SDS011;65641;44.714;37.756;2024-01-11T05:58:33;13.75;;;7.25;;
75379;SDS011;65641;44.714;37.756;2024-01-11T05:59:37;12.90;;;6.93;;
75379;SDS011;65641;44.714;37.756;2024-01-11T06:00:41;13.05;;;8.00;;
75379;SDS011;65641;44.714;37.756;2024-01-11T06:01:45;13.80;;;8.32;;
75379;SDS011;65641;44.714;37.756;2024-01-11T06:02:49;14.95;;;8.50;;
75379;SDS011;65641;44.714;37.756;2024-01-11T06:03:53;15.10;;;9.63;;
75379;SDS011;65641;44.714;37.756;2024-01-11T06:04:57;14.20;;;9.13;;
75379;SDS011;65641;44.714;37.756;2024-01-11T06:06:01;13.27;;;8.57;;
75379;SDS011;65641;44.714;37.756;2024-01-11T06:07:06;13.52;;;6.72;;
75379;SDS011;65641;44.714;37.756;2024-01-11T06:08:10;13.80;;;6.47;;
75379;SDS011;65641;44.714;37.756;2024-01-11T06:09:13;14.38;;;6.90;;
75379;SDS011;65641;44.714;37.756;2024-01-11T06:10:17;14.02;;;8.40;;
75379;SDS011;65641;44.714;37.756;2024-01-11T06:11:21;13.05;;;6.78;;
75379;SDS011;65641;44.714;37.756;2024-01-11T06:12:25;15.77;;;7.72;;
75379;SDS011;65641;44.714;37.756;2024-01-11T06:13:29;13.93;;;8.75;;
75379;SDS011;65641;44.714;37.756;2024-01-11T06:14:32;13.93;;;8.70;;
75379;SDS011;65641;44.714;37.756;2024-01-11T06:15:37;12.80;;;7.15;;
75379;SDS011;65641;44.714;37.756;2024-01-11T06:16:40;13.25;;;7.57;;